Time;durP1;ratioP1;P1;durP2;ratioP2;P2;SDS_P1;SDS_P2;PMS_P1;PMS_P2;Temp;Humidity;BMP_temperature;BMP_pressure;BME280_temperature;BME280_humidity;BME280_pressure;Samples;Min_cycle;Max_cycle;Signal;HPM_P1;HPM_P2
2023/06/30 00:01:48;;;;;;;10.27;4.03;;;;;;;15.93;90.73;101296.16;5061824;28;20127;-71
2023/06/30 00:04:19;;;;;;;8.43;4.10;;;;;;;15.92;90.95;101287.31;5065249;28;20052;-72
2023/06/30 00:06:50;;;;;;;8.85;4.30;;;;;;;15.94;91.26;101295.22;5069140;28;20047;-71
2023/06/30 00:09:20;;;;;;;8.38;4.18;;;;;;;15.95;90.93;101291.63;5065388;28;20834;-71
2023/06/30 00:11:51;;;;;;;8.15;4.00;;;;;;;15.95;91.44;101286.31;5066441;28;20064;-71
2023/06/30 00:14:19;;;;;;;9.32;4.03;;;;;;;15.99;91.77;101285.25;5066831;28;20548;-72
2023/06/30 00:16:48;;;;;;;10.25;4.15;;;;;;;16.01;91.73;101288.72;5066514;28;20049;-73
2023/06/30 00:19:16;;;;;;;8.35;4.40;;;;;;;16.02;91.22;101284.22;5066364;28;20038;-73
2023/06/30 00:21:43;;;;;;;14.82;4.38;;;;;;;15.99;91.19;101282.59;5066789;28;20044;-73
2023/06/30 00:24:13;;;;;;;8.40;4.18;;;;;;;15.99;91.30;101287.91;5062466;28;20087;-73
2023/06/30 00:26:40;;;;;;;7.68;4.05;;;;;;;15.98;91.43;101287.03;5065165;28;20044;-73
2023/06/30 00:29:08;;;;;;;8.75;4.32;;;;;;;15.99;91.38;101295.88;5062381;28;20037;-73
2023/06/30 00:31:36;;;;;;;8.48;4.47;;;;;;;16.01;91.65;101298.47;5066006;28;20862;-73
2023/06/30 00:34:03;;;;;;;9.30;4.72;;;;;;;16.04;91.45;101293.00;5060875;28;20050;-73
2023/06/30 00:36:31;;;;;;;10.13;4.95;;;;;;;16.08;91.02;101291.91;5064921;28;20123;-72
2023/06/30 00:38:59;;;;;;;9.38;4.60;;;;;;;16.07;91.19;101284.91;5065563;28;20524;-73
2023/06/30 00:41:26;;;;;;;7.68;4.90;;;;;;;16.08;91.25;101289.25;5066166;28;20079;-71
2023/06/30 00:43:53;;;;;;;7.45;5.13;;;;;;;16.09;90.99;101293.66;5063639;28;20056;-73
2023/06/30 00:46:20;;;;;;;9.25;5.28;;;;;;;16.09;90.90;101286.56;5067569;28;20041;-72
2023/06/30 00:48:49;;;;;;;10.95;5.68;;;;;;;16.10;90.68;101285.63;5066695;28;20075;-73
2023/06/30 00:51:16;;;;;;;9.98;5.72;;;;;;;16.08;90.93;101292.81;5070459;28;20037;-72
2023/06/30 00:53:44;;;;;;;11.65;6.03;;;;;;;16.08;91.13;101292.81;5068600;28;20083;-73
2023/06/30 00:56:11;;;;;;;10.25;5.85;;;;;;;16.09;90.90;101294.53;5067507;28;20064;-73
2023/06/30 00:58:38;;;;;;;12.07;5.93;;;;;;;16.07;90.94;101296.38;5070201;28;20610;-73
2023/06/30 01:01:23;;;;;;;9.60;5.70;;;;;;;16.07;90.48;101298.19;5070789;28;20056;-72
2023/06/30 01:04:06;;;;;;;10.48;5.07;;;;;;;16.03;90.50;101291.28;5072922;28;20040;-73
2023/06/30 01:06:51;;;;;;;14.48;5.65;;;;;;;16.04;90.25;101290.34;5068575;28;20749;-72
2023/06/30 01:09:26;;;;;;;13.18;5.40;;;;;;;16.03;90.21;101288.63;5071834;28;20060;-72
2023/06/30 01:11:54;;;;;;;13.07;5.10;;;;;;;16.02;89.72;101287.78;5072660;28;20107;-72
2023/06/30 01:14:23;;;;;;;11.10;4.45;;;;;;;16.01;89.46;101287.81;5072161;28;20614;-72
2023/06/30 01:16:51;;;;;;;9.30;3.72;;;;;;;15.98;88.94;101284.38;5070653;28;20085;-72
2023/06/30 01:19:33;;;;;;;12.73;3.97;;;;;;;15.97;88.39;101290.63;5064227;28;20041;-72
2023/06/30 01:22:48;;;;;;;10.20;3.85;;;;;;;15.93;87.60;101298.81;5071350;28;20513;-74
2023/06/30 01:25:27;;;;;;;13.45;4.43;;;;;;;15.87;87.48;101296.44;5058816;28;20072;-73
2023/06/30 01:27:57;;;;;;;9.50;4.25;;;;;;;15.82;87.68;101292.16;5069159;28;20071;-73
2023/06/30 01:30:29;;;;;;;12.20;3.75;;;;;;;15.79;87.79;101300.28;5070976;28;20045;-74
2023/06/30 01:32:58;;;;;;;10.88;3.95;;;;;;;15.76;87.75;101308.38;5070776;28;20052;-73
2023/06/30 01:35:28;;;;;;;13.15;4.03;;;;;;;15.72;87.12;101304.13;5070920;28;20041;-73
2023/06/30 01:37:56;;;;;;;9.80;3.58;;;;;;;15.67;87.26;101296.34;5070211;28;20659;-73
2023/06/30 01:40:24;;;;;;;14.48;4.05;;;;;;;15.63;87.24;101307.19;5071126;28;20048;-73
2023/06/30 01:42:55;;;;;;;9.23;3.65;;;;;;;15.60;87.29;101302.03;5066039;28;20029;-74
2023/06/30 01:45:26;;;;;;;10.85;3.63;;;;;;;15.58;87.12;101304.75;5065088;28;20041;-74
2023/06/30 01:47:56;;;;;;;9.65;3.45;;;;;;;15.53;86.80;101310.25;5064689;28;20044;-74
2023/06/30 01:50:25;;;;;;;9.82;3.50;;;;;;;15.50;86.92;101301.56;5067059;28;20103;-73
2023/06/30 01:52:52;;;;;;;11.15;3.65;;;;;;;15.49;86.82;101299.81;5069095;28;20832;-73
2023/06/30 01:55:20;;;;;;;13.02;3.28;;;;;;;15.48;86.64;101301.63;5069646;28;20183;-73
2023/06/30 01:57:47;;;;;;;10.13;3.85;;;;;;;15.50;86.53;101289.16;5071878;28;20056;-74
2023/06/30 02:00:15;;;;;;;13.98;3.83;;;;;;;15.48;86.92;101303.41;5070368;28;20099;-74
2023/06/30 02:02:42;;;;;;;12.50;3.80;;;;;;;15.43;87.10;101298.31;5066581;28;20128;-72
2023/06/30 02:05:12;;;;;;;13.80;4.03;;;;;;;15.39;87.46;101299.38;5063069;28;20104;-73
2023/06/30 02:07:39;;;;;;;11.80;4.00;;;;;;;15.36;87.50;101294.19;5064481;28;20045;-73
2023/06/30 02:10:07;;;;;;;12.80;3.92;;;;;;;15.29;87.52;101295.41;5068506;28;20056;-72
2023/06/30 02:12:35;;;;;;;12.68;3.75;;;;;;;15.26;87.66;101292.88;5066853;28;20568;-73
2023/06/30 02:15:04;;;;;;;7.25;2.95;;;;;;;15.22;87.64;101292.97;5063627;28;20052;-73
2023/06/30 02:17:32;;;;;;;7.47;2.83;;;;;;;15.20;86.26;101297.53;5064000;28;20049;-73
2023/06/30 02:20:00;;;;;;;12.32;3.20;;;;;;;15.18;85.75;101295.84;5060771;28;20115;-73
2023/06/30 02:22:28;;;;;;;13.23;3.50;;;;;;;15.11;85.97;101287.25;5063914;28;20041;-73
2023/06/30 02:24:56;;;;;;;9.02;3.60;;;;;;;15.03;86.98;101286.72;5066580;28;20057;-73
2023/06/30 02:27:24;;;;;;;10.27;3.53;;;;;;;14.98;87.50;101294.03;5065718;28;20033;-74
2023/06/30 02:29:51;;;;;;;10.52;3.72;;;;;;;14.90;87.95;101284.56;5066428;28;20041;-74
2023/06/30 02:32:19;;;;;;;9.75;3.67;;;;;;;14.83;88.37;101291.06;5067716;28;20072;-74
2023/06/30 02:34:46;;;;;;;12.77;4.10;;;;;;;14.77;88.65;101288.69;5067258;28;20053;-73
2023/06/30 02:37:14;;;;;;;11.00;4.00;;;;;;;14.71;88.99;101291.56;5067329;28;20698;-72
2023/06/30 02:39:41;;;;;;;8.75;4.30;;;;;;;14.66;89.56;101282.91;5068479;28;20051;-72
2023/06/30 02:42:08;;;;;;;9.90;3.47;;;;;;;14.62;89.40;101297.22;5064611;28;20061;-73
2023/06/30 02:44:35;;;;;;;11.88;3.95;;;;;;;14.58;89.37;101304.44;5066909;28;20482;-72
2023/06/30 02:47:03;;;;;;;10.50;3.83;;;;;;;14.51;89.50;101302.97;5051921;28;20045;-72
2023/06/30 02:49:30;;;;;;;11.85;3.53;;;;;;;14.44;89.73;101294.38;5065681;28;20049;-72
2023/06/30 02:52:00;;;;;;;9.20;4.10;;;;;;;14.39;90.04;101305.16;5066093;28;20045;-72
2023/06/30 02:54:27;;;;;;;11.63;4.00;;;;;;;14.33;90.37;101297.47;5065737;28;20043;-71
2023/06/30 02:56:55;;;;;;;12.13;4.20;;;;;;;14.28;90.93;101299.41;5066055;28;20115;-73
2023/06/30 02:59:23;;;;;;;10.05;4.05;;;;;;;14.21;90.89;101306.72;5068493;28;20073;-72
2023/06/30 03:01:51;;;;;;;14.15;4.13;;;;;;;14.18;90.88;101309.53;5064645;28;20049;-73
2023/06/30 03:04:18;;;;;;;11.60;3.90;;;;;;;14.14;91.43;101310.56;5060465;28;20434;-72
2023/06/30 03:06:46;;;;;;;12.73;4.35;;;;;;;14.13;91.70;101317.66;5063325;28;20047;-73
2023/06/30 03:09:14;;;;;;;10.80;4.20;;;;;;;14.14;91.35;101321.16;5066468;28;20128;-72
2023/06/30 03:11:42;;;;;;;10.98;4.20;;;;;;;14.12;91.64;101320.34;5067649;28;20068;-72
2023/06/30 03:14:11;;;;;;;8.65;4.25;;;;;;;14.08;91.38;101327.56;5065195;28;20466;-72
2023/06/30 03:16:42;;;;;;;11.93;4.18;;;;;;;14.05;91.69;101326.81;5068482;28;20041;-72
2023/06/30 03:19:09;;;;;;;14.57;4.05;;;;;;;14.00;91.49;101319.03;5065016;28;20583;-71
2023/06/30 03:21:37;;;;;;;12.75;4.50;;;;;;;13.94;90.97;101319.22;5067331;28;20586;-72
2023/06/30 03:24:04;;;;;;;13.05;3.95;;;;;;;13.89;91.25;101318.56;5065520;28;20080;-71
2023/06/30 03:26:31;;;;;;;9.77;4.03;;;;;;;13.85;91.69;101316.91;5068632;28;20037;-72
2023/06/30 03:29:01;;;;;;;14.15;4.60;;;;;;;13.84;91.56;101317.88;5063382;28;20045;-72
2023/06/30 03:31:31;;;;;;;14.15;4.47;;;;;;;13.81;91.52;101319.72;5067023;28;20886;-72
2023/06/30 03:33:58;;;;;;;11.73;4.10;;;;;;;13.77;91.73;101320.72;5066572;28;20953;-71
2023/06/30 03:36:27;;;;;;;12.40;4.10;;;;;;;13.76;91.77;101326.09;5066533;28;20132;-71
2023/06/30 03:38:54;;;;;;;11.82;3.88;;;;;;;13.74;91.81;101315.53;5064468;28;20045;-72
2023/06/30 03:41:22;;;;;;;13.40;4.65;;;;;;;13.75;91.88;101313.75;5065955;28;20044;-72
2023/06/30 03:43:49;;;;;;;11.50;4.22;;;;;;;13.76;91.21;101318.13;5063085;28;20132;-71
2023/06/30 03:46:16;;;;;;;11.50;4.97;;;;;;;13.72;90.94;101308.56;5063870;28;20178;-71
2023/06/30 03:48:44;;;;;;;8.15;3.75;;;;;;;13.71;91.01;101309.47;5061653;28;20060;-69
2023/06/30 03:51:11;;;;;;;11.88;3.85;;;;;;;13.68;91.02;101307.81;5063867;28;20090;-70
2023/06/30 03:53:42;;;;;;;16.25;4.55;;;;;;;13.68;91.17;101301.66;5065828;28;20527;-70
2023/06/30 03:56:10;;;;;;;9.48;4.18;;;;;;;13.69;91.05;101311.31;5067607;28;20858;-70
2023/06/30 03:58:37;;;;;;;11.35;4.22;;;;;;;13.66;90.79;101307.88;5063048;28;20045;-70
2023/06/30 04:01:05;;;;;;;13.57;3.85;;;;;;;13.65;90.62;101310.56;5066212;28;20045;-71
2023/06/30 04:03:33;;;;;;;11.73;4.32;;;;;;;13.66;90.57;101313.19;5063389;28;20518;-71
2023/06/30 04:06:00;;;;;;;10.52;3.88;;;;;;;13.82;90.24;101308.19;5068011;28;20037;-72
2023/06/30 04:08:28;;;;;;;17.42;4.50;;;;;;;13.88;90.83;101301.81;5062029;28;20043;-72
2023/06/30 04:10:56;;;;;;;14.90;4.35;;;;;;;14.16;89.64;101307.81;5057703;28;20102;-72
2023/06/30 04:13:23;;;;;;;14.05;4.30;;;;;;;14.26;89.04;101303.91;5065009;28;20044;-72
2023/06/30 04:15:50;;;;;;;15.90;3.75;;;;;;;14.23;88.87;101302.25;5066616;28;20079;-72
2023/06/30 04:18:17;;;;;;;16.90;4.63;;;;;;;14.18;88.40;101298.91;5053268;28;20048;-72
2023/06/30 04:20:44;;;;;;;9.25;3.70;;;;;;;14.15;88.54;101291.06;5064058;28;20764;-72
2023/06/30 04:23:11;;;;;;;11.38;3.35;;;;;;;14.14;88.17;101292.84;5065303;28;20079;-72
2023/06/30 04:25:39;;;;;;;13.32;4.15;;;;;;;14.13;88.09;101298.22;5064941;28;20821;-72
2023/06/30 04:28:06;;;;;;;11.43;3.40;;;;;;;14.11;88.01;101297.41;5063193;28;20942;-72
2023/06/30 04:30:33;;;;;;;13.77;4.30;;;;;;;14.12;88.30;101299.13;5062563;28;20048;-71
2023/06/30 04:33:00;;;;;;;12.32;3.75;;;;;;;14.16;88.26;101295.47;5061732;28;20044;-75
2023/06/30 04:35:27;;;;;;;13.98;3.88;;;;;;;14.19;88.72;101300.66;5054692;28;20122;-74
2023/06/30 04:37:54;;;;;;;13.18;3.97;;;;;;;14.21;87.32;101295.28;5055407;28;20045;-75
2023/06/30 04:40:21;;;;;;;19.55;4.65;;;;;;;14.24;87.80;101293.38;5056396;28;20628;-73
2023/06/30 04:42:48;;;;;;;17.83;4.43;;;;;;;14.32;87.27;101298.38;5057916;28;20045;-75
2023/06/30 04:45:16;;;;;;;15.27;4.60;;;;;;;14.35;87.29;101294.75;5063886;28;20045;-75
2023/06/30 04:47:45;;;;;;;8.38;3.70;;;;;;;14.37;86.28;101293.75;5058081;28;20064;-76
2023/06/30 04:50:12;;;;;;;13.57;3.95;;;;;;;14.38;86.22;101295.47;5056043;28;20096;-76
2023/06/30 04:52:39;;;;;;;13.32;3.80;;;;;;;14.38;85.89;101305.25;5057668;28;20046;-75
2023/06/30 04:55:06;;;;;;;12.48;4.50;;;;;;;14.39;86.01;101296.38;5056813;28;20047;-76
2023/06/30 04:57:33;;;;;;;7.35;3.60;;;;;;;14.41;86.23;101305.09;5069678;28;20040;-76
2023/06/30 05:00:01;;;;;;;11.48;4.45;;;;;;;14.49;85.77;101303.03;5056196;28;20490;-75
2023/06/30 05:02:28;;;;;;;11.93;4.20;;;;;;;14.64;84.92;101312.19;5062634;28;20564;-76
2023/06/30 05:04:55;;;;;;;9.68;4.10;;;;;;;14.63;84.84;101307.78;5062095;28;20045;-76
2023/06/30 05:07:22;;;;;;;13.18;4.15;;;;;;;14.69;84.53;101309.38;5056611;28;20045;-76
2023/06/30 05:09:50;;;;;;;17.38;4.75;;;;;;;14.71;84.56;101302.19;5056637;28;20050;-76
2023/06/30 05:12:17;;;;;;;10.60;4.25;;;;;;;14.75;84.38;101304.66;5059357;28;20122;-75
2023/06/30 05:14:44;;;;;;;9.63;3.80;;;;;;;14.80;84.68;101312.47;5065898;28;20045;-76
2023/06/30 05:17:11;;;;;;;16.45;5.68;;;;;;;14.92;84.42;101313.72;5063623;28;20519;-76
2023/06/30 05:19:38;;;;;;;9.60;3.85;;;;;;;15.09;83.62;101317.47;5046001;28;20038;-75
2023/06/30 05:22:06;;;;;;;8.57;4.25;;;;;;;15.79;82.35;101307.38;5055625;28;20040;-76
2023/06/30 05:24:33;;;;;;;7.15;3.83;;;;;;;17.73;75.42;101311.38;5062633;28;20043;-76
2023/06/30 05:27:01;;;;;;;8.85;4.10;;;;;;;19.26;69.70;101313.56;5061380;28;20048;-75
2023/06/30 05:29:31;;;;;;;8.80;3.70;;;;;;;20.37;65.34;101313.94;5062400;28;20087;-74
2023/06/30 05:31:58;;;;;;;6.97;3.40;;;;;;;21.36;61.26;101311.94;5057136;28;20045;-75
2023/06/30 05:34:25;;;;;;;21.13;4.55;;;;;;;22.23;58.19;101304.06;5056738;28;20178;-76
2023/06/30 05:36:54;;;;;;;10.02;3.45;;;;;;;23.04;54.00;101306.25;5059666;28;20044;-75
2023/06/30 05:39:23;;;;;;;6.30;2.72;;;;;;;23.69;52.39;101307.53;5056263;28;20049;-75
2023/06/30 05:41:50;;;;;;;7.32;2.97;;;;;;;24.41;51.24;101301.88;5054093;28;20124;-73
2023/06/30 05:44:17;;;;;;;17.02;3.20;;;;;;;25.32;49.76;101306.94;5057179;28;20049;-75
2023/06/30 05:46:44;;;;;;;17.55;3.35;;;;;;;26.24;47.82;101305.31;5064667;28;20109;-75
2023/06/30 05:49:12;;;;;;;8.30;2.75;;;;;;;26.90;43.27;101304.72;5061758;28;20048;-74
2023/06/30 05:51:39;;;;;;;8.90;2.50;;;;;;;27.47;42.99;101303.94;5046600;28;20071;-74
2023/06/30 05:54:06;;;;;;;7.57;2.70;;;;;;;28.11;41.97;101308.69;5047791;28;20796;-75
2023/06/30 05:56:33;;;;;;;8.52;2.60;;;;;;;28.70;40.25;101300.19;5051848;28;20132;-73
2023/06/30 05:59:00;;;;;;;7.65;2.55;;;;;;;29.31;39.69;101303.97;5053209;28;20467;-74
2023/06/30 06:01:27;;;;;;;12.07;2.47;;;;;;;29.86;38.34;101310.09;5054628;28;20092;-74
2023/06/30 06:03:55;;;;;;;8.13;2.42;;;;;;;30.42;36.58;101304.19;5068123;28;20128;-74
2023/06/30 06:06:22;;;;;;;8.50;2.63;;;;;;;30.70;35.06;101309.38;5055166;28;20156;-75
2023/06/30 06:08:49;;;;;;;6.88;2.70;;;;;;;30.86;34.36;101305.81;5069267;28;20037;-75
2023/06/30 06:11:17;;;;;;;6.47;2.33;;;;;;;30.91;34.81;101306.16;5078934;28;20094;-74
2023/06/30 06:13:44;;;;;;;7.82;3.03;;;;;;;31.16;34.21;101311.63;5068906;28;20041;-74
2023/06/30 06:16:11;;;;;;;15.63;2.60;;;;;;;31.34;33.20;101314.16;5083379;28;20139;-74
2023/06/30 06:18:38;;;;;;;6.72;2.92;;;;;;;31.50;33.75;101308.66;5056535;28;20508;-74
2023/06/30 06:21:05;;;;;;;23.60;3.25;;;;;;;31.49;33.52;101308.84;5069480;28;20103;-75
2023/06/30 06:23:32;;;;;;;8.80;1.90;;;;;;;30.35;32.87;101320.31;5066446;28;20056;-74
2023/06/30 06:26:01;;;;;;;5.60;1.65;;;;;;;27.61;35.62;101312.59;5068748;28;20076;-74
2023/06/30 06:28:28;;;;;;;7.53;2.00;;;;;;;24.95;39.99;101322.56;5067968;28;20055;-74
2023/06/30 06:30:55;;;;;;;6.57;1.90;;;;;;;23.08;43.82;101319.34;5068534;28;20138;-74
2023/06/30 06:33:22;;;;;;;5.40;1.70;;;;;;;21.72;47.48;101316.59;5067761;28;20591;-76
2023/06/30 06:35:53;;;;;;;5.97;2.05;;;;;;;20.72;50.75;101316.13;5065940;28;20213;-75
2023/06/30 06:38:20;;;;;;;12.98;2.50;;;;;;;20.03;53.26;101324.09;5065723;28;20041;-74
2023/06/30 06:40:47;;;;;;;6.57;2.33;;;;;;;19.59;55.37;101325.00;5065391;28;20048;-73
2023/06/30 06:43:15;;;;;;;7.22;2.10;;;;;;;19.21;56.19;101321.00;5067429;28;20163;-76
2023/06/30 06:45:42;;;;;;;9.07;2.30;;;;;;;18.89;57.48;101332.59;5069168;28;20071;-75
2023/06/30 06:48:27;;;;;;;7.72;2.00;;;;;;;18.63;57.98;101340.28;5067118;28;20073;-76
2023/06/30 06:50:58;;;;;;;6.97;2.00;;;;;;;18.35;59.04;101332.09;5066809;28;20542;-75
2023/06/30 06:53:29;;;;;;;7.57;2.38;;;;;;;18.19;59.95;101338.28;5050752;28;20140;-76
2023/06/30 06:55:57;;;;;;;5.95;2.00;;;;;;;18.04;60.48;101337.28;5049648;28;20048;-76
2023/06/30 06:58:31;;;;;;;8.75;2.30;;;;;;;17.96;60.64;101331.47;5049499;28;20560;-75
2023/06/30 07:00:59;;;;;;;7.07;2.15;;;;;;;17.86;61.26;101336.44;5061328;28;20071;-76
2023/06/30 07:03:26;;;;;;;7.45;1.70;;;;;;;17.82;62.31;101341.06;5067518;28;20044;-76
2023/06/30 07:05:55;;;;;;;6.45;2.10;;;;;;;17.88;62.49;101339.03;5067444;28;20048;-76
2023/06/30 07:08:22;;;;;;;11.90;2.63;;;;;;;17.95;62.57;101330.63;5069243;28;20048;-77
2023/06/30 07:10:50;;;;;;;6.45;1.90;;;;;;;18.02;61.99;101328.50;5054404;28;20041;-76
2023/06/30 07:13:20;;;;;;;5.88;1.73;;;;;;;18.10;62.10;101323.66;5048623;28;20050;-76
2023/06/30 07:15:48;;;;;;;7.10;1.70;;;;;;;18.17;62.36;101329.47;5049358;28;20724;-76
2023/06/30 07:18:17;;;;;;;4.90;1.77;;;;;;;18.27;60.35;101335.19;5047882;28;20050;-77
2023/06/30 07:20:54;;;;;;;6.57;1.65;;;;;;;18.28;59.50;101328.91;5047992;28;20505;-77
2023/06/30 07:23:21;;;;;;;7.22;1.70;;;;;;;18.31;59.88;101326.09;5048621;28;20120;-76
2023/06/30 07:25:52;;;;;;;5.35;1.30;;;;;;;18.36;58.75;101336.50;5048064;28;20042;-77
2023/06/30 07:28:19;;;;;;;6.80;1.98;;;;;;;18.38;58.80;101330.13;5047981;28;21053;-75
2023/06/30 07:30:46;;;;;;;5.28;1.45;;;;;;;18.45;56.62;101327.97;5048394;28;20576;-76
2023/06/30 07:33:13;;;;;;;6.32;1.52;;;;;;;18.50;57.73;101331.22;5048799;28;20068;-76
2023/06/30 07:35:40;;;;;;;4.38;1.15;;;;;;;18.60;56.84;101336.94;5054362;28;20108;-76
2023/06/30 07:38:07;;;;;;;7.75;1.80;;;;;;;18.61;55.86;101336.00;5067442;28;20041;-76
2023/06/30 07:40:35;;;;;;;8.73;1.92;;;;;;;18.69;56.38;101335.53;5068029;28;20061;-76
2023/06/30 07:43:05;;;;;;;4.88;1.67;;;;;;;18.76;55.71;101335.09;5068748;28;20037;-75
2023/06/30 07:45:32;;;;;;;4.38;1.15;;;;;;;18.84;56.73;101337.34;5066765;28;20041;-77
2023/06/30 07:47:59;;;;;;;6.43;1.60;;;;;;;18.99;55.97;101343.66;5065518;28;20061;-76
2023/06/30 07:50:26;;;;;;;5.40;1.35;;;;;;;19.09;54.90;101333.25;5059681;28;20060;-76
2023/06/30 07:52:53;;;;;;;5.05;1.50;;;;;;;19.18;54.50;101340.75;5060973;28;20098;-76
2023/06/30 07:55:21;;;;;;;6.43;1.60;;;;;;;19.26;54.49;101336.78;5068215;28;20401;-76
2023/06/30 07:57:48;;;;;;;7.18;1.63;;;;;;;19.34;54.01;101334.50;5066287;28;20513;-76
2023/06/30 08:00:18;;;;;;;5.50;1.33;;;;;;;19.38;54.74;101330.72;5065420;28;20515;-76
2023/06/30 08:02:46;;;;;;;6.82;2.03;;;;;;;19.48;53.54;101337.22;5067883;28;20099;-77
2023/06/30 08:05:13;;;;;;;3.90;1.35;;;;;;;19.58;53.93;101332.16;5066518;28;20103;-77
2023/06/30 08:07:40;;;;;;;3.40;1.45;;;;;;;19.67;52.45;101338.78;5065605;28;20044;-74
2023/06/30 08:10:17;;;;;;;5.97;1.80;;;;;;;19.69;52.76;101339.50;5055318;28;20589;-75
2023/06/30 08:12:44;;;;;;;4.75;1.25;;;;;;;19.76;52.54;101334.66;5065005;28;20132;-76
2023/06/30 08:15:11;;;;;;;5.18;1.33;;;;;;;19.88;53.07;101335.78;5066393;28;20052;-75
2023/06/30 08:17:38;;;;;;;4.50;1.50;;;;;;;20.02;51.71;101333.06;5068181;28;20041;-75
2023/06/30 08:20:22;;;;;;;5.60;1.05;;;;;;;20.06;51.11;101331.94;5064280;28;20471;-76
2023/06/30 08:22:50;;;;;;;4.05;1.20;;;;;;;20.05;51.52;101318.63;5056527;28;20053;-76
2023/06/30 08:25:22;;;;;;;6.38;1.60;;;;;;;20.17;51.83;101325.91;5067887;28;20072;-75
2023/06/30 08:27:49;;;;;;;5.63;1.40;;;;;;;20.37;52.31;101329.13;5067099;28;20037;-78
2023/06/30 08:30:16;;;;;;;7.70;1.50;;;;;;;20.50;51.83;101318.50;5065795;28;20566;-76
2023/06/30 08:32:46;;;;;;;7.38;1.45;;;;;;;20.63;51.26;101319.41;5067577;28;20128;-74
2023/06/30 08:35:13;;;;;;;12.85;1.60;;;;;;;20.73;51.07;101317.00;5064493;28;20113;-75
2023/06/30 08:37:40;;;;;;;5.20;1.17;;;;;;;20.67;50.62;101320.06;5066647;28;20099;-75
2023/06/30 08:40:09;;;;;;;4.00;1.00;;;;;;;20.75;49.91;101313.28;5064332;28;20099;-75
2023/06/30 08:42:40;;;;;;;5.18;1.30;;;;;;;20.71;49.75;101313.56;5066177;28;20557;-76
2023/06/30 08:45:12;;;;;;;3.55;1.27;;;;;;;20.77;50.08;101313.16;5067700;28;20456;-75
2023/06/30 08:47:39;;;;;;;6.70;1.42;;;;;;;21.03;50.22;101321.31;5067529;28;20517;-75
2023/06/30 08:50:08;;;;;;;9.70;1.30;;;;;;;21.12;48.31;101309.09;5066370;28;20120;-76
2023/06/30 08:52:35;;;;;;;5.45;1.42;;;;;;;21.17;46.75;101318.53;5065288;28;20092;-75
2023/06/30 08:55:08;;;;;;;4.35;1.15;;;;;;;21.14;47.01;101307.16;5067089;28;20076;-75
2023/06/30 08:57:35;;;;;;;11.05;2.03;;;;;;;21.19;47.31;101300.53;5066377;28;20052;-79
2023/06/30 09:00:03;;;;;;;6.72;1.13;;;;;;;21.26;47.98;101301.81;5061823;28;20079;-75
2023/06/30 09:02:30;;;;;;;5.35;1.23;;;;;;;21.45;47.93;101297.91;5046847;28;20045;-75
2023/06/30 09:04:58;;;;;;;4.13;0.90;;;;;;;21.56;46.36;101308.75;5046002;28;20566;-77
2023/06/30 09:07:28;;;;;;;8.18;1.40;;;;;;;21.62;46.13;101307.47;5046711;28;20041;-77
2023/06/30 09:10:03;;;;;;;7.45;1.23;;;;;;;21.69;45.52;101298.03;5046759;28;20072;-76
2023/06/30 09:12:30;;;;;;;7.40;1.25;;;;;;;21.84;45.02;101301.47;5050164;28;20037;-76
2023/06/30 09:15:01;;;;;;;6.10;1.10;;;;;;;21.93;43.87;101297.25;5049663;28;20053;-75
2023/06/30 09:17:30;;;;;;;6.30;1.38;;;;;;;21.97;43.86;101293.38;5050394;28;20498;-75
2023/06/30 09:19:57;;;;;;;12.95;1.60;;;;;;;22.04;44.40;101288.44;5049454;28;20625;-77
2023/06/30 09:22:25;;;;;;;11.23;1.50;;;;;;;22.09;43.82;101288.09;5049035;28;20045;-75
2023/06/30 09:25:24;;;;;;;2.45;1.00;;;;;;;22.18;44.69;101277.53;5054565;28;20048;-76
2023/06/30 09:27:53;;;;;;;5.30;0.93;;;;;;;22.29;43.08;101282.16;5069495;28;20053;-76
2023/06/30 09:30:35;;;;;;;6.00;1.48;;;;;;;22.34;42.76;101285.34;5069860;28;20060;-76
2023/06/30 09:33:02;;;;;;;4.07;1.00;;;;;;;22.44;41.79;101279.31;5070010;28;20041;-76
2023/06/30 09:35:38;;;;;;;4.30;1.10;;;;;;;22.27;43.19;101281.41;5069546;28;20111;-75
2023/06/30 09:38:14;;;;;;;6.25;1.10;;;;;;;22.28;43.28;101285.81;5069066;28;20556;-76
2023/06/30 09:40:47;;;;;;;10.80;1.33;;;;;;;22.38;41.32;101279.75;5070181;28;20037;-75
2023/06/30 09:43:21;;;;;;;5.72;1.10;;;;;;;22.38;41.23;101288.69;5070219;28;20040;-75
2023/06/30 09:45:57;;;;;;;11.70;1.70;;;;;;;22.38;41.21;101272.56;5070451;28;20053;-77
2023/06/30 09:48:43;;;;;;;5.70;1.02;;;;;;;22.47;41.40;101274.59;5069376;28;20398;-76
2023/06/30 09:51:12;;;;;;;7.18;1.40;;;;;;;22.65;42.04;101268.81;5068793;28;20044;-77
2023/06/30 09:53:41;;;;;;;6.57;1.20;;;;;;;22.87;40.98;101265.38;5068555;28;20048;-77
2023/06/30 09:56:08;;;;;;;3.65;1.00;;;;;;;23.07;39.51;101266.53;5069391;28;20041;-77
2023/06/30 09:58:39;;;;;;;8.95;1.40;;;;;;;23.18;39.90;101265.69;5068468;28;20156;-77
2023/06/30 10:01:07;;;;;;;8.65;1.63;;;;;;;23.26;40.29;101262.47;5055489;28;20501;-76
2023/06/30 10:03:50;;;;;;;2.95;1.10;;;;;;;23.38;39.53;101261.50;5048700;28;20083;-77
2023/06/30 10:06:21;;;;;;;4.63;1.13;;;;;;;23.52;38.87;101268.50;5048526;28;20538;-77
2023/06/30 10:08:51;;;;;;;5.97;0.90;;;;;;;23.60;37.70;101257.13;5064343;28;20473;-77
2023/06/30 10:11:22;;;;;;;4.78;1.10;;;;;;;23.60;37.70;101253.56;5069488;28;20953;-76
2023/06/30 10:13:56;;;;;;;7.10;1.63;;;;;;;23.69;37.47;101263.59;5068313;28;20508;-77
2023/06/30 10:16:25;;;;;;;19.67;2.58;;;;;;;23.68;38.17;101273.53;5067789;28;20136;-76
2023/06/30 10:18:55;;;;;;;5.03;1.20;;;;;;;23.68;37.50;101257.38;5070250;28;20041;-76
2023/06/30 10:21:22;;;;;;;4.55;1.20;;;;;;;23.60;38.00;101270.59;5067910;28;20033;-76
2023/06/30 10:23:51;;;;;;;17.90;1.80;;;;;;;23.58;37.92;101267.16;5066089;28;20049;-76
2023/06/30 10:26:21;;;;;;;15.27;1.73;;;;;;;23.43;38.42;101263.84;5068268;28;20045;-76
2023/06/30 10:28:48;;;;;;;4.15;1.25;;;;;;;23.35;38.34;101263.59;5066818;28;20372;-76
2023/06/30 10:31:16;;;;;;;14.73;1.80;;;;;;;23.27;38.60;101251.56;5067180;28;20495;-76
2023/06/30 10:33:44;;;;;;;8.15;1.35;;;;;;;23.32;38.98;101258.44;5065541;28;20059;-76
2023/06/30 10:36:15;;;;;;;5.88;1.40;;;;;;;23.38;39.28;101252.56;5066465;28;20052;-77
2023/06/30 10:38:43;;;;;;;6.72;1.48;;;;;;;23.48;38.98;101252.72;5067361;28;20493;-77
2023/06/30 10:41:19;;;;;;;3.63;1.20;;;;;;;23.60;39.80;101249.06;5068618;28;20044;-77
2023/06/30 10:44:08;;;;;;;2.78;1.20;;;;;;;23.71;39.34;101245.50;5068546;28;20052;-77
2023/06/30 10:46:52;;;;;;;5.43;1.48;;;;;;;23.64;39.42;101238.91;5066586;28;20121;-76
2023/06/30 10:49:33;;;;;;;5.07;1.50;;;;;;;23.61;38.63;101242.69;5067989;28;20057;-76
2023/06/30 10:52:09;;;;;;;7.68;1.23;;;;;;;23.58;39.56;101245.63;5067761;28;20521;-76
2023/06/30 10:54:47;;;;;;;3.03;0.98;;;;;;;23.77;37.32;101238.78;5065928;28;20103;-77
2023/06/30 10:57:39;;;;;;;4.57;1.30;;;;;;;24.08;36.93;101234.47;5064371;28;20501;-77
2023/06/30 11:00:11;;;;;;;5.03;1.33;;;;;;;24.18;36.65;101238.13;5059637;28;20057;-77
2023/06/30 11:02:53;;;;;;;2.40;1.20;;;;;;;24.23;36.50;101236.91;5066864;28;20116;-76
2023/06/30 11:05:25;;;;;;;3.67;1.60;;;;;;;24.25;36.38;101225.00;5059841;28;20049;-77
2023/06/30 11:08:22;;;;;;;4.38;1.35;;;;;;;24.33;36.99;101224.38;5046303;28;20556;-76
2023/06/30 11:10:50;;;;;;;19.20;2.55;;;;;;;24.35;36.99;101230.50;5049174;28;20080;-76
2023/06/30 11:13:36;;;;;;;9.50;1.77;;;;;;;24.35;37.13;101223.28;5064433;28;20106;-76
2023/06/30 11:16:03;;;;;;;7.22;1.70;;;;;;;24.27;36.52;101220.34;5067640;28;20099;-76
2023/06/30 11:18:32;;;;;;;17.13;2.65;;;;;;;24.32;37.03;101222.69;5054928;28;20044;-76
2023/06/30 11:21:05;;;;;;;12.88;2.25;;;;;;;24.53;37.54;101225.41;5066909;28;20044;-76
2023/06/30 11:23:42;;;;;;;29.05;2.70;;;;;;;24.62;37.02;101226.47;5056942;28;20116;-76
2023/06/30 11:26:18;;;;;;;16.23;2.80;;;;;;;24.80;37.37;101222.25;5062972;28;20045;-76
2023/06/30 11:28:48;;;;;;;10.27;2.28;;;;;;;24.95;36.48;101219.25;5066385;28;20732;-76
2023/06/30 11:31:16;;;;;;;5.85;1.75;;;;;;;25.05;36.10;101214.78;5065683;28;20045;-76
2023/06/30 11:33:45;;;;;;;13.55;1.67;;;;;;;25.17;36.18;101215.53;5065351;28;20128;-76